Have a Safe July 4th! 

Flight Track Log - Related Links

Times and Time Zones

All times are in EDT time to prevent confusion due to time zone crossing. See the TAM3343 flight status page for this flight to view local times or setup timezone preferences in your user account.

Time Position Orientation Groundspeed Altitude Reporting Facility
EDT Latitude Longitude Course Direction KTS MPH feet Rate Location/Type
Mon 10:52:01 AM -19.6300 -43.9730 90° East 110 127  Level FlightAware ADS-B
Mon 10:52:31 AM -19.6450 -43.9590 139° Southeast 164 189 2,900 4,744 Climbing FlightAware ADS-B
Mon 10:52:44 AM -19.6560 -43.9510 146° Southeast 177 204 3,400 1,636 Climbing FlightAware ADS-B
Mon 10:53:04 AM -19.6720 -43.9460 164° South 197 227 3,800 1,317 Climbing FlightAware ADS-B
Mon 10:53:25 AM -19.6900 -43.9420 168° South 221 254 4,300 1,333 Climbing FlightAware ADS-B
Mon 10:53:40 AM -19.7050 -43.9360 159° South 240 276 4,600 1,500 Climbing FlightAware ADS-B
Mon 10:53:45 AM -19.7100 -43.9310 137° Southeast 239 275 4,800 3,000 Climbing FlightAware ADS-B
Mon 10:53:50 AM -19.7140 -43.9230 118° Southeast 241 277 5,100 2,625 Climbing FlightAware ADS-B
Mon 10:54:01 AM -19.7150 -43.9140 97° East 239 275 5,500 2,571 Climbing FlightAware ADS-B
Mon 10:54:25 AM -19.7020 -43.8910 59° Northeast 239 275 6,600 2,545 Climbing FlightAware ADS-B
Mon 10:54:34 AM -19.6900 -43.8870 17° North 244 281 6,900 1,862 Climbing FlightAware ADS-B
Mon 10:54:54 AM -19.6680 -43.8920 348° North 269 310 7,500 1,886 Climbing FlightAware ADS-B
Mon 10:55:09 AM -19.6490 -43.8980 343° North 283 326 8,000 2,100 Climbing FlightAware ADS-B
Mon 10:55:34 AM -19.6140 -43.9120 339° North 301 346 8,900 2,400 Climbing FlightAware ADS-B
Mon 10:55:44 AM -19.6040 -43.9200 323° Northwest 305 351 9,400 2,800 Climbing FlightAware ADS-B
Mon 10:55:49 AM -19.5990 -43.9260 311° West 306 352 9,600 2,118 Climbing FlightAware ADS-B
Mon 10:56:01 AM -19.5920 -43.9380 302° West 308 354 10,000 1,674 Climbing FlightAware ADS-B
Mon 10:56:32 AM -19.5790 -43.9830 287° West 330 380 10,800 1,429 Climbing FlightAware ADS-B
Mon 10:57:04 AM -19.5700 -44.0420 279° West 363 418 11,500 1,925 Climbing FlightAware ADS-B
Mon 10:57:25 AM -19.5820 -44.0720 247° West 357 411 12,500 2,640 Climbing FlightAware ADS-B
Mon 10:57:54 AM -19.6160 -44.1110 227° Southwest 360 414 13,700 2,348 Climbing FlightAware ADS-B
Mon 10:58:34 AM -19.6650 -44.1630 225° Southwest 369 425 15,200 2,132 Climbing FlightAware ADS-B
Mon 10:59:10 AM -19.7070 -44.2090 226° Southwest 377 434 16,400 2,053 Climbing FlightAware ADS-B
Mon 10:59:50 AM -19.7540 -44.2600 226° Southwest 384 442 17,800 2,104 Climbing FlightAware ADS-B
Mon 11:00:27 AM -19.8040 -44.3140 225° Southwest 391 450 19,100 2,127 Climbing FlightAware ADS-B
Mon 11:01:09 AM -19.8580 -44.3730 226° Southwest 394 453 20,600 2,000 Climbing FlightAware ADS-B
Mon 11:01:45 AM -19.9050 -44.4230 225° Southwest 401 461 21,700 1,703 Climbing FlightAware ADS-B
Mon 11:02:23 AM -19.9530 -44.4760 226° Southwest 408 470 22,700 1,667 Climbing FlightAware ADS-B
Mon 11:02:57 AM -19.9980 -44.5250 226° Southwest 412 474 23,700 1,569 Climbing FlightAware ADS-B
Mon 11:03:28 AM -20.0390 -44.5700 226° Southwest 421 484 24,400 1,457 Climbing FlightAware ADS-B
Mon 11:04:07 AM -20.0890 -44.6240 225° Southwest 424 488 25,400 1,784 Climbing FlightAware ADS-B
Mon 11:04:42 AM -20.1410 -44.6810 226° Southwest 419 482 26,600 1,622 Climbing FlightAware ADS-B
Mon 11:05:21 AM -20.1960 -44.7410 226° Southwest 427 491 27,400 1,268 Climbing FlightAware ADS-B
Mon 11:05:53 AM -20.2370 -44.7870 226° Southwest 430 495 28,100 880 Climbing FlightAware ADS-B
Mon 11:06:36 AM -20.2580 -44.8100 226° Southwest 429 494 28,500 767 Climbing FlightAware ADS-B
Mon 11:07:19 AM -20.3150 -44.8710 225° Southwest 436 502 29,200 1,026 Climbing FlightAware ADS-B
Mon 11:07:52 AM -20.3610 -44.9220 226° Southwest 439 505 29,800 1,412 Climbing FlightAware ADS-B
Mon 11:08:27 AM -20.4170 -44.9840 226° Southwest 437 503 30,800 1,941 Climbing FlightAware ADS-B
Mon 11:09:00 AM -20.4650 -45.0370 226° Southwest 427 491 32,000 1,941 Climbing FlightAware ADS-B
Mon 11:09:35 AM -20.5370 -45.1160 226° Southwest 425 489 33,000 1,440 Climbing FlightAware ADS-B
Mon 11:10:15 AM -20.6050 -45.1900 226° Southwest 430 495 33,800 632 Climbing FlightAware ADS-B
Mon 11:10:51 AM -20.6070 -45.1930 235° Southwest 431 496 33,800 141 Level FlightAware ADS-B
Mon 11:11:40 AM -20.6620 -45.2540 226° Southwest 425 489 34,000 150 Climbing FlightAware ADS-B
Mon 11:12:11 AM -20.7600 -45.3620 226° Southwest 427 491 34,000  Level FlightAware ADS-B
Mon 11:12:45 AM -20.8110 -45.4180 226° Southwest 425 489 34,000  Level FlightAware ADS-B
Mon 11:13:20 AM -20.8580 -45.4700 226° Southwest 423 487 34,000  Level FlightAware ADS-B
Mon 11:14:00 AM -20.9110 -45.5290 226° Southwest 422 486 34,000  Level FlightAware ADS-B
Mon 11:14:35 AM -20.9590 -45.5820 226° Southwest 422 486 34,000  Level FlightAware ADS-B
Mon 11:15:10 AM -21.0060 -45.6340 226° Southwest 424 488 34,000  Level FlightAware ADS-B
Mon 11:15:45 AM -21.0520 -45.6860 227° Southwest 425 489 34,000  Level FlightAware ADS-B
Mon 11:16:16 AM -21.0950 -45.7340 226° Southwest 426 490 34,000  Level FlightAware ADS-B
Mon 11:16:55 AM -21.1490 -45.7930 226° Southwest 427 491 34,000  Level FlightAware ADS-B
Mon 11:17:30 AM -21.1970 -45.8470 226° Southwest 427 491 34,000  Level FlightAware ADS-B
Mon 11:18:00 AM -21.2380 -45.8930 226° Southwest 427 491 34,000  Level FlightAware ADS-B
Mon 11:18:36 AM -21.2850 -45.9450 226° Southwest 425 489 34,000  Level FlightAware ADS-B
Mon 11:19:15 AM -21.3400 -46.0070 226° Southwest 425 489 34,000  Level FlightAware ADS-B
Mon 11:19:45 AM -21.3770 -46.0570 232° Southwest 425 489 34,000  Level FlightAware ADS-B
Mon 11:20:26 AM -21.4120 -46.1320 243° Southwest 422 486 34,000  Level FlightAware ADS-B
Mon 11:20:55 AM -21.4390 -46.1870 242° Southwest 422 486 34,000  Level FlightAware ADS-B
Mon 11:21:30 AM -21.4710 -46.2550 243° Southwest 422 486 34,000  Level FlightAware ADS-B
Mon 11:22:05 AM -21.5020 -46.3180 242° Southwest 422 486 34,000  Level FlightAware ADS-B
Mon 11:22:43 AM -21.5330 -46.3840 243° Southwest 423 487 34,000  Level FlightAware ADS-B
Mon 11:23:19 AM -21.5680 -46.4570 243° Southwest 421 484 34,000  Level FlightAware ADS-B
Mon 11:23:53 AM -21.5980 -46.5220 244° Southwest 422 486 34,000  Level FlightAware ADS-B
Mon 11:24:29 AM -21.6290 -46.5880 243° Southwest 423 487 34,000  Level FlightAware ADS-B
Mon 11:25:05 AM -21.6620 -46.6570 243° Southwest 422 486 34,000  Level FlightAware ADS-B
Mon 11:25:35 AM -21.6880 -46.7110 243° Southwest 421 484 34,000  Level FlightAware ADS-B
Mon 11:26:13 AM -21.7220 -46.7820 243° Southwest 421 484 34,000  Level FlightAware ADS-B
Mon 11:26:49 AM -21.7520 -46.8480 244° Southwest 420 483 34,000  Level FlightAware ADS-B
Mon 11:27:25 AM -21.7880 -46.9160 240° Southwest 425 489 34,000  Level FlightAware ADS-B
Mon 11:27:57 AM -21.8370 -46.9580 219° Southwest 437 503 34,000 -857 Level FlightAware ADS-B
Mon 11:28:35 AM -21.9110 -46.9880 201° Southwest 443 510 33,000 -1,579 Descending FlightAware ADS-B
Mon 11:29:13 AM -21.9760 -47.0130 200° South 429 494 32,000 -1,760 Descending FlightAware ADS-B
Mon 11:29:50 AM -22.0490 -47.0420 200° South 413 475 30,800 -2,500 Descending FlightAware ADS-B
Mon 11:30:25 AM -22.1130 -47.0640 198° South 420 483 29,000 -2,877 Descending FlightAware ADS-B
Mon 11:31:03 AM -22.1900 -47.0700 184° South 422 486 27,300 -2,366 Descending FlightAware ADS-B
Mon 11:31:36 AM -22.2520 -47.0740 183° South 412 474 26,200 -2,060 Descending FlightAware ADS-B
Mon 11:32:10 AM -22.3160 -47.0780 183° South 402 463 25,000 -2,057 Descending FlightAware ADS-B
Mon 11:32:46 AM -22.3840 -47.0830 184° South 392 451 23,800 -2,000 Descending FlightAware ADS-B
Mon 11:33:22 AM -22.4480 -47.0880 184° South 382 440 22,600 -1,969 Descending FlightAware ADS-B
Mon 11:33:50 AM -22.4960 -47.0910 183° South 378 435 21,700 -1,941 Descending FlightAware ADS-B
Mon 11:34:30 AM -22.5650 -47.0960 184° South 368 423 20,400 -1,800 Descending FlightAware ADS-B
Mon 11:34:50 AM -22.5970 -47.0890 169° South 365 420 19,900 -1,607 Descending FlightAware ADS-B
Mon 11:35:26 AM -22.6550 -47.0640 158° South 357 411 18,900 -1,644 Descending FlightAware ADS-B
Mon 11:36:03 AM -22.7130 -47.0400 159° South 354 407 17,900 -1,644 Descending FlightAware ADS-B
Mon 11:36:39 AM -22.7680 -47.0170 159° South 349 402 16,900 -1,612 Descending FlightAware ADS-B
Mon 11:37:10 AM -22.8140 -46.9980 159° South 346 398 16,100 -1,588 Descending FlightAware ADS-B
Mon 11:37:47 AM -22.8690 -46.9750 159° South 343 395 15,100 -2,060 Descending FlightAware ADS-B
Mon 11:38:17 AM -22.9140 -46.9560 159° South 353 406 13,800 -2,438 Descending FlightAware ADS-B
Mon 11:38:51 AM -22.9670 -46.9340 159° South 356 410 12,500 -2,060 Descending FlightAware ADS-B
Mon 11:39:24 AM -23.0160 -46.9130 158° South 348 400 11,500 -1,521 Descending FlightAware ADS-B
Mon 11:40:02 AM -23.0720 -46.8890 158° South 325 374 10,700 -1,200 Descending FlightAware ADS-B
Mon 11:40:34 AM -23.1160 -46.8710 159° South 306 352 10,100 -750 Descending FlightAware ADS-B
Mon 11:40:58 AM -23.1470 -46.8580 159° South 298 343 10,000 -837 Descending FlightAware ADS-B
Mon 11:41:17 AM -23.1700 -46.8480 158° South 298 343 9,500 -1,500 Descending FlightAware ADS-B
Mon 11:41:34 AM -23.1940 -46.8380 159° South 295 339 9,100 -1,371 Descending FlightAware ADS-B
Mon 11:41:52 AM -23.2170 -46.8280 158° South 290 334 8,700 -1,421 Descending FlightAware ADS-B
Mon 11:42:12 AM -23.2410 -46.8180 159° South 286 329 8,200 -1,463 Descending FlightAware ADS-B
Mon 11:42:33 AM -23.2660 -46.8070 158° South 286 329 7,700 -1,167 Descending FlightAware ADS-B
Mon 11:42:48 AM -23.2850 -46.7990 159° South 277 319 7,500 -774 Descending FlightAware ADS-B
Mon 11:43:04 AM -23.3040 -46.7910 159° South 269 310 7,300 -667 Descending FlightAware ADS-B
Mon 11:43:24 AM -23.3270 -46.7810 158° South 256 295 7,100 -450 Descending FlightAware ADS-B
Mon 11:43:44 AM -23.3480 -46.7730 161° South 242 278 7,000 -450 Descending FlightAware ADS-B
Mon 11:44:04 AM -23.3690 -46.7640 159° South 232 267 6,800 -857 Descending FlightAware ADS-B
Mon 11:44:12 AM -23.3760 -46.7590 147° Southeast 229 264 6,600 -750 Descending FlightAware ADS-B
Mon 11:44:28 AM -23.3880 -46.7480 140° Southeast 221 254 6,500 -500 Descending FlightAware ADS-B
Mon 11:44:48 AM -23.4030 -46.7340 139° Southeast 214 246 6,300 -732 Descending FlightAware ADS-B
Mon 11:45:09 AM -23.4190 -46.7190 139° Southeast 205 236 6,000 -1,050 Descending FlightAware ADS-B
Mon 11:45:28 AM -23.4330 -46.7060 140° Southeast 203 234 5,600 -878 Descending FlightAware ADS-B
Mon 11:45:50 AM -23.4480 -46.6910 137° Southeast 187 215 5,400 -400 Descending FlightAware ADS-B
Mon 11:45:58 AM -23.4510 -46.6850 119° Southeast 180 207 5,400 -400 Level FlightAware ADS-B
Mon 11:46:20 AM -23.4580 -46.6670 113° Southeast 167 192 5,200 -714 Descending FlightAware ADS-B
Mon 11:46:40 AM -23.4640 -46.6520 114° Southeast 164 189 4,900 -900 Descending FlightAware ADS-B
Mon 11:47:00 AM -23.4700 -46.6370 114° Southeast 159 183 4,600 -649 Descending FlightAware ADS-B
Mon 11:47:17 AM -23.4740 -46.6260 112° Southeast 151 174 4,500 -300 Descending FlightAware ADS-B
Mon 11:47:20 AM -23.4740 -46.6230 90° East 151 174 4,500 -522 Level FlightAware ADS-B
Mon 11:47:40 AM -23.4710 -46.6080 78° East 146 168 4,300 -667 Descending FlightAware ADS-B
Mon 11:48:05 AM -23.4670 -46.5910 76° East 153 176 4,000 -840 Descending FlightAware ADS-B
Mon 11:48:30 AM -23.4620 -46.5720 74° East 149 171 3,600 -840 Descending FlightAware ADS-B
Mon 11:48:55 AM -23.4570 -46.5530 74° East 150 173 3,300 -686 Descending FlightAware ADS-B
Mon 11:49:05 AM -23.4550 -46.5470 70° East 148 170 3,200 -800 Descending FlightAware ADS-B
Mon 11:49:25 AM -23.4510 -46.5310 75° East 149 171 2,900 -714 Descending FlightAware ADS-B
Mon 11:49:47 AM -23.4470 -46.5170 73° East 151 174 2,700 -692 Descending FlightAware ADS-B
Mon 11:50:17 AM -23.4410 -46.4950 73° East 150 173 2,300 -414 Descending FlightAware ADS-B
Mon 11:50:45 AM -23.4370 -46.4770 76° East 150 173 2,300  Level FlightAware ADS-B
Mon 11:53:00 AM -23.4321 -46.4695 54° Northeast  Level Estimated
Mon 11:54:00 AM -23.4321 -46.4695 350° North  Level Estimated
Mon 11:55:00 AM -23.4321 -46.4695 350° North  Level Estimated
Mon 11:56:00 AM -23.4321 -46.4695 350° North  Level Estimated
Mon 11:57:00 AM -23.4321 -46.4695 350° North  Level Estimated
Mon 11:58:00 AM -23.4321 -46.4695 350° North  Level Estimated
Mon 11:59:00 AM -23.4321 -46.4695 350° North  Level Estimated
Mon 12:00:00 PM -23.4321 -46.4695 350° North  Level Estimated
Mon 12:01:00 PM -23.4321 -46.4695 350° North  Level Estimated
Mon 12:02:00 PM -23.4321 -46.4695 350° North  Level Estimated
Mon 12:03:00 PM -23.4321 -46.4695 350° North  Level Estimated
Mon 12:04:00 PM -23.4321 -46.4695 350° North  Level Estimated
Mon 12:05:00 PM -23.4321 -46.4695 350° North  Level Estimated
Mon 12:06:00 PM -23.4321 -46.4695 350° North  Level Estimated
Mon 12:07:00 PM -23.4321 -46.4695 350° North  Level Estimated

Login

Don't have an account? Register now (free) for customized features, flight alerts, and more!